Time;durP1;ratioP1;P1;durP2;ratioP2;P2;SDS_P1;SDS_P2;PMS_P1;PMS_P2;Temp;Humidity;BMP_temperature;BMP_pressure;BME280_temperature;BME280_humidity;BME280_pressure;Samples;Min_cycle;Max_cycle;Signal;HPM_P1;HPM_P2
2021/05/05 00:00:56;;;;;;;1.58;1.15;;;;;;;13.86;51.90;93104.69;5091786;28;20475;-51
2021/05/05 00:03:36;;;;;;;1.23;1.13;;;;;;;13.80;51.57;93106.97;5107483;28;20035;-52
2021/05/05 00:06:03;;;;;;;0.95;0.95;;;;;;;13.70;52.58;93115.28;5093215;28;20097;-52
2021/05/05 00:08:31;;;;;;;1.48;1.10;;;;;;;13.75;52.75;93121.88;5097645;28;20027;-49
2021/05/05 00:11:03;;;;;;;1.03;0.90;;;;;;;13.75;53.16;93135.75;5110285;28;20024;-53
2021/05/05 00:13:40;;;;;;;2.55;0.88;;;;;;;13.74;53.64;93146.09;5110077;28;20472;-50
2021/05/05 00:16:12;;;;;;;1.85;1.00;;;;;;;13.82;53.19;93140.47;5110322;28;20051;-48
2021/05/05 00:18:52;;;;;;;0.82;0.82;;;;;;;13.89;52.56;93139.59;5110007;28;20053;-52
2021/05/05 00:21:43;;;;;;;1.50;1.10;;;;;;;13.92;53.86;93138.44;5109950;28;20127;-52
2021/05/05 00:24:20;;;;;;;1.85;1.20;;;;;;;13.85;53.96;93151.13;5105018;28;20055;-50
2021/05/05 00:26:57;;;;;;;1.98;1.30;;;;;;;13.85;53.67;93150.41;5109907;28;20050;-49
2021/05/05 00:29:22;;;;;;;0.98;0.88;;;;;;;13.85;54.38;93145.59;5109674;28;20047;-51
2021/05/05 00:31:54;;;;;;;1.25;1.15;;;;;;;13.78;54.70;93145.69;5106935;28;20040;-50
2021/05/05 00:34:19;;;;;;;1.30;1.00;;;;;;;13.92;54.32;93150.28;5089287;28;20070;-50
2021/05/05 00:36:47;;;;;;;2.17;1.40;;;;;;;13.94;54.98;93139.34;5102154;28;20024;-51
2021/05/05 00:39:26;;;;;;;2.13;1.53;;;;;;;14.01;55.13;93146.81;5110184;28;20043;-49
2021/05/05 00:41:54;;;;;;;1.85;1.38;;;;;;;13.79;55.71;93139.56;5109212;28;20035;-53
2021/05/05 00:44:25;;;;;;;2.15;1.33;;;;;;;13.76;53.71;93115.75;5098222;28;20070;-55
2021/05/05 00:46:54;;;;;;;1.08;0.80;;;;;;;13.89;54.19;93143.13;5093180;28;20089;-51
2021/05/05 00:49:22;;;;;;;0.90;0.87;;;;;;;13.85;54.41;93147.63;5102477;28;20067;-51
2021/05/05 00:52:13;;;;;;;3.00;0.93;;;;;;;13.90;53.93;93141.06;5107364;28;20043;-54
2021/05/05 00:57:49;;;;;;;1.00;1.00;;;;;;;13.89;55.30;93131.28;5066547;28;20051;-58
2021/05/05 01:00:24;;;;;;;0.70;0.70;;;;;;;13.93;55.15;93124.00;5109616;28;20190;-58
2021/05/05 01:02:53;;;;;;;1.48;1.38;;;;;;;13.73;56.08;93121.72;5109562;28;20036;-58
2021/05/05 01:05:21;;;;;;;1.20;1.05;;;;;;;13.70;55.77;93109.72;5109577;28;20542;-58
2021/05/05 01:07:47;;;;;;;1.33;1.23;;;;;;;13.74;56.21;93120.41;5109328;28;20435;-57
2021/05/05 01:10:22;;;;;;;1.92;1.45;;;;;;;13.61;56.95;93125.03;5109703;28;20565;-55
2021/05/05 01:12:47;;;;;;;1.50;1.40;;;;;;;13.60;57.08;93112.44;5110012;28;20016;-51
2021/05/05 01:15:16;;;;;;;1.35;1.10;;;;;;;13.53;57.37;93090.38;5112712;28;20516;-54
2021/05/05 01:17:45;;;;;;;1.00;0.82;;;;;;;13.55;58.13;93109.97;5114046;28;20400;-50
2021/05/05 01:20:14;;;;;;;1.80;1.30;;;;;;;13.50;58.03;93106.13;5113953;28;20526;-56
2021/05/05 01:22:39;;;;;;;;;;;;;;;13.57;58.56;93096.25;5099013;28;20085;-54
2021/05/05 01:25:11;;;;;;;1.38;1.27;;;;;;;13.56;58.65;93095.50;5104961;28;19990;-53
2021/05/05 01:27:41;;;;;;;1.13;0.95;;;;;;;13.54;58.44;93087.03;5113283;28;20027;-49
2021/05/05 01:30:15;;;;;;;4.63;1.17;;;;;;;13.53;58.32;93079.28;5113270;28;20496;-52
2021/05/05 01:32:40;;;;;;;1.08;1.08;;;;;;;13.43;59.43;93084.03;5113047;28;20034;-49
2021/05/05 01:35:20;;;;;;;1.58;1.48;;;;;;;13.30;59.38;93079.59;5113113;28;20039;-50
2021/05/05 01:37:54;;;;;;;1.80;1.08;;;;;;;13.43;59.36;93067.41;5092802;28;20412;-53
2021/05/05 01:40:27;;;;;;;2.80;1.27;;;;;;;13.34;59.78;93070.88;5092647;28;20020;-51
2021/05/05 01:42:59;;;;;;;1.50;1.38;;;;;;;13.21;60.32;93069.19;5093088;28;20520;-52
2021/05/05 01:45:30;;;;;;;1.45;1.35;;;;;;;13.28;60.08;93073.91;5092686;28;20024;-51
2021/05/05 01:48:06;;;;;;;2.47;1.65;;;;;;;13.26;60.45;93073.00;5092748;28;20098;-51
2021/05/05 01:50:37;;;;;;;6.35;1.50;;;;;;;13.31;60.38;93074.78;5092641;28;20107;-51
2021/05/05 01:53:12;;;;;;;2.83;1.20;;;;;;;13.24;60.18;93051.41;5092827;28;20028;-49
2021/05/05 01:55:41;;;;;;;1.23;1.02;;;;;;;13.28;60.52;93071.13;5092761;28;20027;-52
2021/05/05 01:58:12;;;;;;;1.98;1.42;;;;;;;13.17;60.46;93054.28;5092348;28;20147;-53
2021/05/05 02:00:38;;;;;;;1.60;1.50;;;;;;;13.22;60.62;93070.66;5092441;28;20480;-53
2021/05/05 02:03:10;;;;;;;0.77;0.77;;;;;;;13.18;61.91;93067.59;5092750;28;20028;-55
2021/05/05 02:05:38;;;;;;;2.05;1.77;;;;;;;13.25;61.34;93071.56;5092644;28;20047;-55
2021/05/05 02:08:06;;;;;;;2.60;1.63;;;;;;;13.13;61.37;93065.78;5092506;28;20024;-53
2021/05/05 02:10:35;;;;;;;0.90;0.90;;;;;;;13.21;60.72;93065.69;5092563;28;20436;-53
2021/05/05 02:13:06;;;;;;;1.17;1.08;;;;;;;13.12;61.90;93058.06;5092193;28;20073;-51
2021/05/05 02:15:38;;;;;;;1.42;1.00;;;;;;;13.14;62.41;93064.50;5091982;28;20028;-54
2021/05/05 02:18:18;;;;;;;1.10;0.80;;;;;;;13.16;62.53;93052.81;5092240;28;20412;-51
2021/05/05 02:20:52;;;;;;;9.20;2.17;;;;;;;13.15;63.17;93071.50;5092380;28;20442;-51
2021/05/05 02:23:20;;;;;;;2.25;1.50;;;;;;;13.23;63.04;93066.56;5091113;28;20036;-55
2021/05/05 02:25:45;;;;;;;1.17;1.08;;;;;;;13.15;61.65;93074.25;5107944;28;20015;-52
2021/05/05 02:28:29;;;;;;;1.17;1.05;;;;;;;13.03;61.94;93053.16;5108103;28;20044;-54
2021/05/05 02:30:58;;;;;;;2.63;2.00;;;;;;;13.17;61.89;93068.13;5092195;28;20024;-52
2021/05/05 02:33:33;;;;;;;1.50;0.98;;;;;;;12.99;62.85;93059.13;5092071;28;20047;-53
2021/05/05 02:36:04;;;;;;;2.05;1.17;;;;;;;13.02;62.40;93046.88;5098277;28;20031;-54
2021/05/05 02:38:29;;;;;;;1.45;1.35;;;;;;;13.01;62.99;93053.00;5112422;27;20035;-53
2021/05/05 02:40:57;;;;;;;2.38;1.50;;;;;;;13.03;62.65;93053.16;5112146;27;20023;-54
2021/05/05 02:43:23;;;;;;;1.33;1.00;;;;;;;13.03;63.37;93061.47;5112223;28;20024;-49
2021/05/05 02:45:48;;;;;;;1.10;1.10;;;;;;;13.11;63.76;93073.22;5111894;28;20413;-57
2021/05/05 02:48:16;;;;;;;1.35;1.25;;;;;;;13.17;63.73;93079.97;5112124;28;20552;-57
2021/05/05 02:51:09;;;;;;;4.10;1.60;;;;;;;13.24;62.17;93081.91;5112149;28;20077;-51
2021/05/05 02:53:34;;;;;;;3.70;1.33;;;;;;;13.13;62.66;93079.66;5102378;27;20012;-49
2021/05/05 02:56:09;;;;;;;1.60;1.05;;;;;;;13.06;62.94;93097.09;5091222;28;20523;-52
2021/05/05 02:58:44;;;;;;;1.17;1.00;;;;;;;12.91;63.81;93108.34;5089212;28;20035;-55
2021/05/05 03:01:16;;;;;;;1.10;0.82;;;;;;;12.94;63.54;93118.28;5091814;28;20104;-53
2021/05/05 03:03:56;;;;;;;2.35;1.23;;;;;;;12.84;63.96;93117.50;5091567;28;20024;-56
2021/05/05 03:06:29;;;;;;;2.78;1.20;;;;;;;12.86;64.33;93123.91;5074058;28;20074;-54
2021/05/05 03:09:07;;;;;;;4.90;1.88;;;;;;;12.82;64.54;93133.97;5091202;28;20125;-55
2021/05/05 03:11:55;;;;;;;2.33;1.45;;;;;;;12.49;66.94;93105.69;5091257;28;20045;-54
2021/05/05 03:14:23;;;;;;;2.20;1.97;;;;;;;12.25;68.90;93102.97;5090786;28;20069;-53
2021/05/05 03:16:49;;;;;;;1.52;1.42;;;;;;;12.28;70.29;93115.69;5090987;28;20811;-53
2021/05/05 03:19:20;;;;;;;2.55;1.58;;;;;;;12.36;71.37;93128.16;5091378;28;20023;-55
2021/05/05 03:22:04;;;;;;;1.35;1.20;;;;;;;12.35;70.91;93120.41;5101264;28;20046;-53
2021/05/05 03:24:29;;;;;;;1.50;1.05;;;;;;;12.55;69.47;93133.13;5108795;28;20080;-54
2021/05/05 03:26:57;;;;;;;2.80;1.33;;;;;;;12.13;73.48;93097.91;5111581;28;20573;-54
2021/05/05 03:29:26;;;;;;;10.07;1.63;;;;;;;12.10;73.93;93104.59;5111188;28;20129;-53
2021/05/05 03:31:52;;;;;;;4.95;1.77;;;;;;;12.25;73.66;93103.72;5111413;28;20023;-52
2021/05/05 03:34:23;;;;;;;1.60;1.45;;;;;;;12.26;74.77;93123.81;5110885;28;20088;-53
2021/05/05 03:36:55;;;;;;;1.63;1.52;;;;;;;12.27;74.87;93114.22;5097430;28;20057;-52
2021/05/05 03:39:23;;;;;;;1.40;1.30;;;;;;;12.24;74.47;93104.25;5090067;28;20618;-53
2021/05/05 03:41:54;;;;;;;2.13;1.83;;;;;;;12.15;74.91;93105.63;5090403;28;20051;-50
2021/05/05 03:44:34;;;;;;;1.25;1.05;;;;;;;12.04;73.62;93097.81;5090390;28;20085;-54
2021/05/05 03:47:08;;;;;;;2.13;1.92;;;;;;;12.05;74.88;93102.78;5090365;28;20028;-51
2021/05/05 03:49:37;;;;;;;1.77;1.45;;;;;;;12.07;74.92;93105.72;5090605;28;20036;-50
2021/05/05 03:52:05;;;;;;;1.63;1.53;;;;;;;12.18;73.34;93108.00;5090259;28;20020;-54
2021/05/05 03:54:39;;;;;;;3.17;1.43;;;;;;;12.11;72.96;93106.03;5092569;28;20044;-48
2021/05/05 03:57:20;;;;;;;3.83;1.83;;;;;;;12.16;74.42;93096.78;5085040;28;20036;-52
2021/05/05 03:59:45;;;;;;;1.25;1.13;;;;;;;12.17;74.35;93097.53;5090444;28;20016;-47
2021/05/05 04:02:19;;;;;;;1.98;1.77;;;;;;;12.01;75.03;93088.63;5086883;28;20032;-49
2021/05/05 04:04:47;;;;;;;4.25;1.40;;;;;;;12.11;75.13;93086.66;5090349;28;20019;-49
2021/05/05 04:07:33;;;;;;;2.53;1.88;;;;;;;12.13;74.41;93073.00;5089767;28;20034;-48
2021/05/05 04:09:59;;;;;;;2.63;1.95;;;;;;;12.05;74.30;93082.66;5089491;28;20106;-48
2021/05/05 04:12:29;;;;;;;1.90;1.70;;;;;;;12.03;74.79;93076.97;5090183;28;20058;-48
2021/05/05 04:15:03;;;;;;;3.40;1.88;;;;;;;11.89;75.07;93079.28;5089841;28;20099;-51
2021/05/05 04:17:32;;;;;;;1.42;1.33;;;;;;;11.90;75.16;93080.78;5089849;28;20504;-52
2021/05/05 04:20:03;;;;;;;2.95;2.60;;;;;;;11.99;74.62;93093.97;5090021;28;20020;-49
2021/05/05 04:22:47;;;;;;;3.95;1.80;;;;;;;11.81;75.36;93062.03;5095206;28;20032;-50
2021/05/05 04:25:19;;;;;;;3.25;1.85;;;;;;;12.06;75.04;93092.44;5089658;28;20024;-51
2021/05/05 04:28:07;;;;;;;2.40;2.13;;;;;;;12.13;75.79;93103.44;5089590;28;20040;-49
2021/05/05 04:30:33;;;;;;;4.75;2.20;;;;;;;12.21;75.84;93108.91;5083068;28;20091;-52
2021/05/05 04:33:04;;;;;;;3.65;2.38;;;;;;;12.37;75.29;93110.22;5089449;28;20051;-51
2021/05/05 04:35:59;;;;;;;2.75;2.42;;;;;;;12.31;74.30;93095.91;5089474;28;20070;-51
2021/05/05 04:38:34;;;;;;;3.60;2.45;;;;;;;12.21;74.92;93100.63;5089519;28;20028;-50
2021/05/05 04:41:08;;;;;;;2.38;2.15;;;;;;;12.39;75.39;93101.38;5109895;28;20026;-50
2021/05/05 04:43:40;;;;;;;4.38;2.65;;;;;;;12.36;75.02;93106.00;5108325;28;20024;-53
2021/05/05 04:46:05;;;;;;;2.47;2.17;;;;;;;12.16;75.06;93073.91;5089219;28;20043;-52
2021/05/05 04:48:34;;;;;;;2.50;1.92;;;;;;;12.29;74.92;93084.66;5109009;28;20118;-55
2021/05/05 04:51:15;;;;;;;2.85;2.65;;;;;;;12.41;75.37;93113.31;5109749;28;20050;-53
2021/05/05 04:53:46;;;;;;;2.90;2.20;;;;;;;12.47;74.76;93122.16;5109789;28;20500;-54
2021/05/05 04:56:12;;;;;;;2.33;2.13;;;;;;;12.54;75.07;93128.91;5109709;28;20042;-51
2021/05/05 04:58:48;;;;;;;5.03;2.72;;;;;;;12.52;73.99;93137.75;5109982;28;20031;-52
2021/05/05 05:01:23;;;;;;;3.50;2.20;;;;;;;12.48;74.34;93136.69;5109656;28;20561;-48
2021/05/05 05:03:51;;;;;;;3.30;2.20;;;;;;;12.56;73.76;93140.16;5109738;28;20047;-49
2021/05/05 05:06:22;;;;;;;2.63;2.17;;;;;;;12.65;72.96;93139.47;5102473;28;20044;-48
2021/05/05 05:08:59;;;;;;;2.97;1.90;;;;;;;12.59;73.51;93136.22;5109422;28;20431;-50
2021/05/05 05:11:43;;;;;;;3.90;2.88;;;;;;;12.53;74.03;93146.81;5109653;28;20508;-53
2021/05/05 05:14:23;;;;;;;2.78;2.22;;;;;;;12.34;74.06;93152.91;5095314;28;20047;-49
2021/05/05 05:16:49;;;;;;;3.42;2.08;;;;;;;12.03;75.65;93126.78;5092328;28;20031;-56
2021/05/05 05:19:20;;;;;;;4.47;1.98;;;;;;;12.44;75.60;93150.97;5109872;28;20511;-55
2021/05/05 05:21:45;;;;;;;2.60;1.83;;;;;;;12.48;73.51;93150.53;5102058;28;20016;-56
2021/05/05 05:24:11;;;;;;;4.82;2.20;;;;;;;12.54;73.22;93137.22;5088878;28;20039;-57
2021/05/05 05:26:58;;;;;;;3.20;2.67;;;;;;;12.58;73.25;93126.47;5089127;28;20032;-58
2021/05/05 05:29:29;;;;;;;3.20;2.65;;;;;;;12.70;73.80;93130.19;5089111;28;20105;-58
2021/05/05 05:31:57;;;;;;;2.40;2.30;;;;;;;12.82;73.85;93118.06;5089568;28;20028;-57
2021/05/05 05:34:31;;;;;;;1.67;1.58;;;;;;;12.98;72.45;93121.38;5090376;28;20074;-58
2021/05/05 05:37:24;;;;;;;3.10;2.80;;;;;;;13.12;72.04;93119.78;5089443;28;20132;-56
2021/05/05 05:40:04;;;;;;;3.30;2.97;;;;;;;13.28;73.75;93134.16;5088203;28;20036;-48
2021/05/05 05:42:36;;;;;;;4.35;2.03;;;;;;;13.47;72.27;93139.84;5089204;28;20028;-47
2021/05/05 05:45:03;;;;;;;3.17;2.47;;;;;;;13.58;71.18;93145.59;5089656;28;20059;-50
2021/05/05 05:47:31;;;;;;;2.63;1.90;;;;;;;13.69;69.70;93144.31;5091413;28;20081;-52
2021/05/05 05:50:00;;;;;;;5.47;2.67;;;;;;;13.55;69.28;93149.53;5089173;28;20428;-50
2021/05/05 05:52:37;;;;;;;2.60;2.10;;;;;;;13.37;69.68;93150.88;5089246;28;20032;-50
2021/05/05 05:55:14;;;;;;;6.13;3.00;;;;;;;12.95;71.15;93141.91;5088753;28;20503;-51
2021/05/05 05:57:47;;;;;;;34.63;2.75;;;;;;;13.08;71.00;93141.59;5089182;28;20059;-51
2021/05/05 06:00:36;;;;;;;2.50;2.22;;;;;;;13.29;70.95;93150.25;5092942;28;20039;-54
2021/05/05 06:03:26;;;;;;;6.22;2.58;;;;;;;13.29;70.53;93132.88;5113115;28;20069;-52
2021/05/05 06:06:17;;;;;;;3.05;2.72;;;;;;;13.28;71.82;93137.66;5102030;28;20063;-52
2021/05/05 06:09:09;;;;;;;5.18;3.70;;;;;;;13.62;70.69;93137.56;5091896;28;20132;-50
2021/05/05 06:11:46;;;;;;;3.28;2.67;;;;;;;14.26;69.69;93135.50;5094361;28;20024;-49
2021/05/05 06:14:58;;;;;;;5.28;2.53;;;;;;;14.68;66.89;93132.41;5093191;28;20119;-52
2021/05/05 06:17:25;;;;;;;4.15;2.80;;;;;;;14.51;66.32;93136.00;5088678;28;20075;-55
2021/05/05 06:20:02;;;;;;;4.10;3.00;;;;;;;14.42;66.67;93128.41;5092521;28;20096;-49
2021/05/05 06:22:45;;;;;;;3.78;2.88;;;;;;;14.54;66.69;93120.97;5105432;28;20038;-50
2021/05/05 06:25:14;;;;;;;6.05;2.20;;;;;;;14.65;65.33;93134.28;5112038;28;20034;-52
2021/05/05 06:27:48;;;;;;;2.97;2.47;;;;;;;14.63;66.34;93116.75;5112180;28;20035;-50
2021/05/05 06:30:57;;;;;;;6.35;2.90;;;;;;;14.72;67.42;93130.66;5111233;28;20041;-50
2021/05/05 06:33:22;;;;;;;;;;;;;;;14.59;66.38;93122.00;5111965;28;20101;-53
2021/05/05 06:35:56;;;;;;;3.17;2.88;;;;;;;14.35;68.30;93118.16;5112184;27;19915;-54
2021/05/05 06:38:39;;;;;;;4.07;2.33;;;;;;;14.54;67.60;93126.53;5111173;28;20027;-50
2021/05/05 06:41:05;;;;;;;3.20;2.65;;;;;;;14.69;67.26;93106.81;5100845;28;20477;-52
2021/05/05 06:43:51;;;;;;;2.35;2.15;;;;;;;14.97;65.21;93130.34;5101139;28;20070;-52
2021/05/05 06:46:19;;;;;;;3.40;2.70;;;;;;;14.93;64.70;93121.72;5096383;28;20035;-52
2021/05/05 06:49:03;;;;;;;2.53;2.28;;;;;;;15.03;65.86;93114.84;5095565;28;20740;-53
2021/05/05 06:51:28;;;;;;;3.20;2.80;;;;;;;15.18;65.40;93111.06;5109902;28;20172;-50
2021/05/05 06:53:57;;;;;;;3.92;2.65;;;;;;;15.55;63.27;93114.38;5092231;28;20016;-50
2021/05/05 06:56:34;;;;;;;2.20;2.00;;;;;;;16.19;61.85;93118.09;5088972;28;20067;-53
2021/05/05 06:59:03;;;;;;;3.90;2.85;;;;;;;17.02;61.46;93108.34;5089014;28;20052;-49
2021/05/05 07:01:43;;;;;;;4.68;3.38;;;;;;;16.73;58.51;93110.63;5089467;28;20047;-52
2021/05/05 07:04:20;;;;;;;10.65;2.97;;;;;;;15.98;62.23;93116.00;5089093;28;20043;-55
2021/05/05 07:07:12;;;;;;;2.88;2.55;;;;;;;16.54;61.94;93111.50;5089834;28;20027;-52
2021/05/05 07:13:05;;;;;;;5.07;2.42;;;;;;;19.84;55.29;93107.78;5080305;28;20087;-49
2021/05/05 07:15:59;;;;;;;3.58;2.20;;;;;;;22.05;48.28;93101.44;5097056;28;20040;-50
2021/05/05 07:18:33;;;;;;;3.17;1.85;;;;;;;23.88;43.07;93103.72;5087980;28;20044;-53
2021/05/05 07:21:28;;;;;;;2.40;2.20;;;;;;;24.58;40.87;93092.31;5088792;28;20051;-48
2021/05/05 07:23:53;;;;;;;4.07;3.20;;;;;;;26.17;38.77;93094.22;5090273;28;20032;-50
2021/05/05 07:26:21;;;;;;;4.88;2.33;;;;;;;27.44;35.16;93097.88;5088764;28;20550;-50
2021/05/05 07:28:50;;;;;;;2.65;2.08;;;;;;;27.96;32.23;93101.28;5089084;28;20109;-52
2021/05/05 07:31:21;;;;;;;3.47;1.55;;;;;;;27.92;31.35;93109.69;5105301;28;20035;-52
2021/05/05 07:33:59;;;;;;;2.70;2.10;;;;;;;25.49;34.58;93110.41;5108647;27;20030;-51
2021/05/05 07:36:36;;;;;;;6.72;2.65;;;;;;;25.25;33.57;93103.91;5098838;28;20059;-50
2021/05/05 07:42:22;;;;;;;1.85;1.58;;;;;;;26.42;34.12;93090.75;5101251;28;20116;-53
2021/05/05 07:47:36;;;;;;;1.63;1.50;;;;;;;26.71;34.11;93100.75;5110336;28;20497;-58
2021/05/05 07:50:12;;;;;;;1.58;1.48;;;;;;;26.97;31.10;93087.38;5110028;28;20515;-49
2021/05/05 07:52:43;;;;;;;1.88;1.65;;;;;;;26.95;32.32;93098.66;5109999;28;20062;-57
2021/05/05 07:55:30;;;;;;;2.08;1.70;;;;;;;27.48;30.76;93095.13;5110156;28;20036;-56
2021/05/05 07:58:29;;;;;;;2.47;1.70;;;;;;;28.53;31.95;93099.09;5110202;28;20458;-50
2021/05/05 08:00:51;;;;;;;2.15;1.73;;;;;;;29.77;28.46;93090.91;5107567;27;20040;-58
2021/05/05 08:03:22;;;;;;;1.13;1.00;;;;;;;29.46;26.47;93091.72;5093671;28;20024;-58
2021/05/05 08:05:50;;;;;;;1.58;1.48;;;;;;;28.93;27.09;93053.78;5103019;28;20036;-58
2021/05/05 08:08:22;;;;;;;3.22;1.85;;;;;;;28.88;27.63;93085.63;5109850;28;20108;-57
2021/05/05 08:10:50;;;;;;;1.63;1.52;;;;;;;29.06;28.95;93080.31;5099109;28;20502;-58
2021/05/05 08:13:30;;;;;;;2.85;1.25;;;;;;;29.48;27.99;93083.97;5090099;28;20031;-57
2021/05/05 08:16:14;;;;;;;1.20;1.10;;;;;;;28.54;26.60;93086.31;5094002;28;20070;-57
2021/05/05 08:18:45;;;;;;;1.40;1.30;;;;;;;29.24;28.02;93086.34;5109562;27;20104;-54
2021/05/05 08:21:10;;;;;;;1.85;1.23;;;;;;;27.93;29.33;93077.09;5104796;28;20043;-56
2021/05/05 08:23:43;;;;;;;2.00;1.55;;;;;;;28.79;28.29;93079.06;5088077;28;20660;-57
2021/05/05 08:26:11;;;;;;;1.95;1.63;;;;;;;29.04;28.05;93072.44;5089945;28;20036;-56
2021/05/05 08:28:37;;;;;;;2.75;1.23;;;;;;;28.52;27.81;93065.69;5089220;28;20097;-56
2021/05/05 08:31:08;;;;;;;2.10;1.65;;;;;;;27.97;29.83;93054.47;5106022;28;20039;-57
2021/05/05 08:34:00;;;;;;;1.17;1.08;;;;;;;27.75;28.57;93072.44;5109743;28;20038;-57
2021/05/05 08:36:28;;;;;;;2.38;1.40;;;;;;;26.96;29.19;93071.75;5110966;28;20404;-57
2021/05/05 08:39:00;;;;;;;2.22;1.33;;;;;;;27.65;30.12;93043.81;5109592;28;20023;-56
2021/05/05 08:41:28;;;;;;;1.58;1.42;;;;;;;27.38;30.33;93052.31;5110117;27;20034;-57
2021/05/05 08:43:57;;;;;;;2.40;1.52;;;;;;;27.86;31.34;93056.38;5108958;28;20032;-56
2021/05/05 08:46:28;;;;;;;1.30;1.20;;;;;;;27.67;29.80;93049.53;5108451;28;20039;-53
2021/05/05 08:48:54;;;;;;;4.82;1.27;;;;;;;27.25;29.24;93059.78;5108925;28;20077;-55
2021/05/05 08:51:28;;;;;;;1.83;1.25;;;;;;;27.44;29.87;93052.50;5109943;28;20484;-56
2021/05/05 08:54:01;;;;;;;4.80;1.48;;;;;;;26.81;31.11;93056.47;5108900;28;20041;-56
2021/05/05 08:56:42;;;;;;;2.30;1.50;;;;;;;26.63;31.18;93053.13;5108874;28;20058;-57
2021/05/05 08:59:18;;;;;;;1.20;1.10;;;;;;;27.15;29.38;93041.78;5109836;28;20088;-56
2021/05/05 09:01:58;;;;;;;3.35;1.50;;;;;;;27.59;28.95;93046.50;5109974;28;20523;-57
2021/05/05 09:04:29;;;;;;;1.38;1.20;;;;;;;28.98;28.53;93035.38;5108642;28;20124;-57
2021/05/05 09:07:06;;;;;;;2.28;1.10;;;;;;;29.29;26.64;93042.38;5094663;28;20525;-58
2021/05/05 09:09:59;;;;;;;3.83;1.25;;;;;;;29.88;24.76;93024.19;5088848;28;20088;-58
2021/05/05 09:12:30;;;;;;;1.35;1.17;;;;;;;29.27;26.15;93048.03;5089352;28;20024;-57
2021/05/05 09:15:04;;;;;;;2.40;1.42;;;;;;;27.83;27.04;93049.19;5089571;28;20040;-58
2021/05/05 09:17:35;;;;;;;1.35;1.25;;;;;;;26.81;29.10;93039.47;5089509;28;20032;-58
2021/05/05 09:20:22;;;;;;;1.75;1.52;;;;;;;25.76;30.12;93049.78;5088472;28;20035;-58
2021/05/05 09:23:05;;;;;;;2.22;2.03;;;;;;;24.58;32.23;93044.34;5106164;28;20104;-58
2021/05/05 09:25:36;;;;;;;1.30;1.20;;;;;;;24.07;33.10;93049.50;5110052;28;20196;-58
2021/05/05 09:28:25;;;;;;;1.55;1.33;;;;;;;24.29;35.78;93049.59;5109846;28;20418;-57
2021/05/05 09:31:07;;;;;;;2.00;1.05;;;;;;;25.57;30.84;93036.44;5109815;28;20050;-58
2021/05/05 09:33:45;;;;;;;1.90;1.33;;;;;;;25.44;31.56;93037.44;5110166;28;20073;-58
2021/05/05 09:36:16;;;;;;;1.55;1.38;;;;;;;25.72;32.11;93032.69;5104110;28;20131;-58
2021/05/05 09:38:55;;;;;;;2.40;2.20;;;;;;;26.28;31.54;93028.78;5091752;28;20027;-58
2021/05/05 09:41:26;;;;;;;1.75;1.65;;;;;;;26.70;29.68;93028.53;5092918;28;20488;-58
2021/05/05 09:44:00;;;;;;;3.30;1.60;;;;;;;26.67;29.52;93019.25;5093158;28;20031;-58
2021/05/05 09:46:52;;;;;;;1.83;1.27;;;;;;;27.30;30.65;93020.91;5092308;28;20157;-58
2021/05/05 09:49:46;;;;;;;2.42;1.58;;;;;;;26.96;31.14;93012.97;5091448;28;20028;-56
2021/05/05 09:52:25;;;;;;;1.90;1.25;;;;;;;26.77;30.55;93008.22;5093038;28;20047;-58
2021/05/05 09:55:18;;;;;;;2.45;1.80;;;;;;;26.50;31.42;93000.38;5092913;28;20060;-56
2021/05/05 09:57:49;;;;;;;3.83;1.63;;;;;;;26.65;29.94;92995.81;5091196;28;20042;-58
2021/05/05 10:00:29;;;;;;;1.90;1.27;;;;;;;26.25;31.17;93001.06;5081931;28;20043;-58
2021/05/05 10:02:59;;;;;;;1.83;1.60;;;;;;;25.79;32.56;92983.44;5100948;28;20023;-59
2021/05/05 10:05:31;;;;;;;3.30;1.92;;;;;;;26.33;31.36;92989.25;5110910;28;20030;-58
2021/05/05 10:07:58;;;;;;;2.10;1.45;;;;;;;26.26;31.67;92988.34;5113122;27;20039;-58
2021/05/05 10:10:55;;;;;;;3.13;1.90;;;;;;;26.38;31.19;92971.72;5112527;28;20449;-58
2021/05/05 10:13:29;;;;;;;1.40;1.30;;;;;;;26.66;31.31;92968.94;5093822;28;20032;-58
2021/05/05 10:16:00;;;;;;;2.55;2.00;;;;;;;27.81;31.09;92966.16;5089252;28;20040;-58
2021/05/05 10:18:31;;;;;;;1.20;1.10;;;;;;;28.95;27.85;92968.53;5073093;28;20039;-58
2021/05/05 10:21:03;;;;;;;2.47;1.00;;;;;;;29.00;29.13;92952.28;5072573;28;20036;-58
2021/05/05 10:23:32;;;;;;;1.17;1.08;;;;;;;29.41;26.72;92957.25;5108792;28;20436;-58
2021/05/05 10:26:03;;;;;;;1.15;1.05;;;;;;;29.18;26.31;92958.31;5091776;28;20416;-58
2021/05/05 10:28:32;;;;;;;1.65;1.42;;;;;;;28.98;28.18;92955.06;5092942;28;20512;-58
2021/05/05 10:31:09;;;;;;;1.05;0.95;;;;;;;29.20;26.13;92958.34;5090712;28;20635;-58
2021/05/05 10:33:39;;;;;;;3.08;2.08;;;;;;;29.42;25.52;92960.81;5097611;28;20035;-58
2021/05/05 10:36:29;;;;;;;2.47;1.08;;;;;;;29.80;25.20;92958.63;5079102;28;20093;-58
2021/05/05 10:38:55;;;;;;;1.00;0.90;;;;;;;28.95;25.41;92974.22;5109228;28;20049;-58
2021/05/05 10:41:24;;;;;;;1.00;1.00;;;;;;;27.85;27.31;92935.75;5109502;28;20031;-58
2021/05/05 10:43:57;;;;;;;;;;;;;;;26.75;28.65;92947.94;5100243;28;20127;-58
2021/05/05 10:46:25;;;;;;;1.45;1.35;;;;;;;27.42;28.42;92948.25;5088914;28;19912;-55
2021/05/05 10:49:20;;;;;;;2.95;0.85;;;;;;;26.40;28.90;92937.78;5100496;28;20044;-59
2021/05/05 10:51:59;;;;;;;3.20;1.50;;;;;;;25.46;29.98;92938.56;5051824;28;20028;-59
2021/05/05 10:54:57;;;;;;;1.45;1.10;;;;;;;25.14;32.43;92926.97;5068403;28;20028;-60
2021/05/05 10:57:41;;;;;;;1.38;1.27;;;;;;;25.55;30.96;92917.66;5091544;28;20113;-61
2021/05/05 11:00:13;;;;;;;1.40;1.23;;;;;;;26.23;29.65;92925.31;5111448;28;20496;-62
2021/05/05 11:02:48;;;;;;;1.60;1.20;;;;;;;27.10;28.87;92907.75;5109966;28;20035;-59
2021/05/05 11:05:14;;;;;;;2.60;1.10;;;;;;;27.30;26.76;92919.59;5111947;28;20474;-61
2021/05/05 11:07:53;;;;;;;1.23;1.05;;;;;;;26.74;28.12;92912.53;5111713;28;20031;-59
2021/05/05 11:10:31;;;;;;;1.80;1.33;;;;;;;26.58;28.73;92918.47;5111940;28;20019;-61
2021/05/05 11:12:57;;;;;;;6.75;1.17;;;;;;;26.20;28.24;92901.19;5111438;28;20031;-59
2021/05/05 11:15:42;;;;;;;1.00;0.85;;;;;;;26.23;29.24;92911.16;5109970;28;20031;-59
2021/05/05 11:18:30;;;;;;;1.25;1.15;;;;;;;26.13;30.13;92899.56;5110613;28;20053;-60
2021/05/05 11:20:57;;;;;;;1.45;1.13;;;;;;;26.51;28.75;92874.38;5111201;28;20031;-60
2021/05/05 11:23:35;;;;;;;1.33;1.10;;;;;;;25.38;30.98;92899.44;5111764;28;20019;-59
2021/05/05 11:26:21;;;;;;;0.93;0.93;;;;;;;24.77;32.10;92898.91;5111270;28;20051;-52
2021/05/05 11:29:10;;;;;;;1.00;0.82;;;;;;;25.13;32.62;92902.19;5111389;28;20456;-60
2021/05/05 11:31:50;;;;;;;2.08;1.17;;;;;;;24.56;32.08;92902.44;5111844;28;20666;-59
2021/05/05 11:34:19;;;;;;;1.50;1.27;;;;;;;24.37;31.52;92898.25;5111585;28;20035;-61
2021/05/05 11:36:57;;;;;;;0.88;0.88;;;;;;;23.65;33.52;92904.81;5111328;28;20504;-60
2021/05/05 11:39:33;;;;;;;1.83;1.02;;;;;;;23.92;33.60;92890.31;5111515;28;20031;-61
2021/05/05 11:42:11;;;;;;;1.30;1.20;;;;;;;24.24;34.11;92882.28;5111243;28;20028;-51
2021/05/05 11:44:56;;;;;;;5.38;1.13;;;;;;;24.15;33.57;92888.31;5095660;28;20483;-55
2021/05/05 11:47:29;;;;;;;2.08;1.60;;;;;;;23.88;33.03;92881.72;5090355;28;20028;-50
2021/05/05 11:50:00;;;;;;;0.95;0.90;;;;;;;24.05;34.11;92883.03;5098733;28;20024;-54
2021/05/05 11:52:47;;;;;;;1.65;1.35;;;;;;;23.65;33.99;92879.44;5090697;28;20471;-51
2021/05/05 11:55:13;;;;;;;1.73;1.33;;;;;;;23.76;33.86;92875.63;5100297;28;20420;-54
2021/05/05 11:57:51;;;;;;;1.25;1.15;;;;;;;23.44;34.25;92879.34;5100299;28;20423;-55
2021/05/05 12:00:29;;;;;;;1.00;1.00;;;;;;;23.37;35.24;92877.69;5100225;28;20036;-56
2021/05/05 12:02:57;;;;;;;2.08;1.25;;;;;;;23.51;34.25;92872.56;5100356;28;20089;-54
2021/05/05 12:05:22;;;;;;;2.08;1.23;;;;;;;23.49;33.71;92864.06;5100980;28;20028;-56
2021/05/05 12:08:04;;;;;;;1.23;1.13;;;;;;;23.39;34.22;92869.31;5100041;28;20118;-57
2021/05/05 12:10:39;;;;;;;1.23;1.00;;;;;;;23.41;34.10;92870.13;5099228;28;20024;-58
2021/05/05 12:13:10;;;;;;;1.98;1.30;;;;;;;23.37;35.20;92864.31;5098341;28;20164;-59
2021/05/05 12:15:39;;;;;;;2.67;1.55;;;;;;;23.77;35.19;92859.44;5097828;28;20023;-58
2021/05/05 12:18:19;;;;;;;1.50;1.27;;;;;;;23.42;34.86;92848.28;5099615;28;20772;-55
2021/05/05 12:20:46;;;;;;;2.35;1.00;;;;;;;23.29;33.83;92858.34;5098503;28;20107;-55